Pumpkin Center, Mississippi
Current Conditions -  °F | °C
As of 6:53 PM on Wednesday 22 Oct 2014 (Local Time) from KTUP Reporting Station
Clear Clear  
Wind Chill: 56°   Ceiling: Unl
Heat Index: 56°   Visibility: 10mi
Dew Point: 44°   Wind: 5mph
Humidity: 64%   Direction: 20°NNE
Pressure: 30.15"   Gusts: NA
Location:  34.4917°N, 88.9766°W
Report Text: KTUP 222353Z 02004KT 10SM CLR 13/07 A3015 RMK AO2 SLP207 T01330067 10206 20133 55000
Loading
Personal Weather Stations






























Interactive Weather Map
Tropical Storm Tracking
New forecast layout! Learn more

10-Day Weather Forecast

Advertisements
Track Severe Weather on mobile